createdAt,value
2019-04-25T15:08:31.349Z,72.20
2019-04-25T15:11:04.830Z,86.30
2019-04-25T15:14:39.541Z,86.10
2019-04-25T15:18:59.247Z,86.30
2019-04-25T15:21:31.856Z,87.00
2019-04-25T15:24:03.008Z,85.60
2019-04-25T15:26:35.360Z,87.30
2019-04-25T15:29:08.689Z,88.00
2019-04-25T15:31:40.204Z,88.90
2019-04-25T15:34:11.660Z,88.80
2019-04-25T18:49:50.481Z,94.80
2019-04-25T18:52:23.386Z,95.90
2019-04-25T18:54:59.826Z,96.10
2019-04-25T18:57:32.155Z,95.90
2019-04-25T19:00:04.758Z,96.70
2019-04-25T19:02:54.122Z,96.10
2019-04-25T19:05:33.353Z,95.70
2019-04-25T19:08:04.498Z,95.70
2019-04-25T19:10:37.038Z,95.30
2019-04-25T19:13:12.968Z,95.20
2019-04-25T19:15:41.259Z,95.20
2019-04-25T19:18:12.608Z,95.00
2019-04-25T19:20:43.948Z,94.70
2019-04-25T19:23:14.920Z,94.50
2019-04-25T19:25:45.877Z,94.20
2019-04-25T19:28:19.780Z,94.00
2019-04-25T19:30:52.558Z,93.90
2019-04-25T19:33:34.983Z,93.90
2019-04-25T19:35:58.224Z,93.70
2019-04-25T19:38:29.849Z,94.00
2019-04-25T19:43:55.616Z,93.70
2019-04-25T19:46:28.129Z,93.40
2019-04-25T19:48:59.094Z,93.40
2019-04-25T19:51:30.273Z,93.00
2019-04-25T19:54:01.793Z,93.40
2019-04-25T19:56:33.124Z,92.60
2019-04-25T19:59:03.915Z,92.40
2019-04-25T20:01:34.603Z,92.10
2019-04-25T20:04:10.162Z,91.80
2019-04-25T20:06:58.898Z,91.30
2019-04-25T20:09:44.807Z,91.40
2019-04-25T20:12:15.808Z,91.70
2019-04-25T20:14:47.496Z,91.10
2019-04-25T20:17:18.316Z,90.80
2019-04-25T20:19:49.829Z,91.20
2019-04-25T20:22:21.246Z,91.20
2019-04-25T20:24:54.475Z,91.10
2019-04-25T20:27:25.003Z,91.10
2019-04-25T20:29:56.255Z,90.50
2019-04-25T20:32:27.140Z,89.60
2019-04-25T20:34:58.504Z,90.20
2019-04-25T20:37:29.718Z,90.10
2019-04-25T20:40:03.276Z,89.90
2019-04-25T20:42:35.308Z,89.40
2019-04-25T20:45:08.386Z,87.80
2019-04-25T20:47:39.417Z,88.70
2019-04-25T20:50:10.102Z,88.70
2019-04-25T20:52:41.604Z,86.60
2019-04-25T20:55:12.612Z,86.70
2019-04-25T20:57:43.611Z,87.30
2019-04-25T21:00:19.078Z,85.60
2019-04-25T21:02:50.536Z,87.90
2019-04-25T21:05:23.332Z,85.80
2019-04-25T21:07:55.161Z,86.90
2019-04-25T21:10:26.187Z,88.80
2019-04-25T21:12:57.755Z,87.30
2019-04-25T21:15:47.968Z,87.90
2019-04-25T21:18:35.569Z,87.10
2019-04-25T21:21:06.271Z,87.10
2019-04-25T21:23:36.857Z,86.60
2019-04-25T21:26:07.609Z,85.60
2019-04-25T21:28:38.324Z,87.70
2019-04-25T21:31:09.619Z,86.40
2019-04-25T21:33:40.451Z,87.00
2019-04-25T21:36:11.594Z,86.40
2019-04-25T21:38:43.062Z,85.60
2019-04-25T21:41:32.343Z,85.90
2019-04-25T21:44:04.278Z,85.00
2019-04-25T21:46:35.568Z,85.10
2019-04-25T21:49:06.543Z,86.50
2019-04-25T21:51:37.796Z,86.10
2019-04-25T21:54:09.046Z,85.10
2019-04-25T21:56:40.034Z,85.90
2019-04-25T21:59:11.590Z,84.50
2019-04-25T22:01:43.924Z,84.70
2019-04-25T22:04:14.850Z,84.40
2019-04-25T22:06:46.122Z,84.70
2019-04-25T22:09:18.510Z,83.60
2019-04-25T22:11:49.968Z,85.70
2019-04-25T22:14:21.794Z,85.30
2019-04-25T22:16:53.232Z,84.20
2019-04-25T22:19:24.495Z,84.50
2019-04-25T22:21:56.295Z,84.80
2019-04-25T22:24:28.399Z,83.80
2019-04-25T22:27:00.887Z,84.00
2019-04-25T22:29:33.520Z,82.70
2019-04-25T22:32:05.808Z,83.80
2019-04-25T22:34:45.739Z,83.00
2019-04-25T22:37:11.023Z,83.70
2019-04-25T22:39:41.964Z,83.40
2019-04-25T22:42:14.174Z,82.40
2019-04-25T22:44:45.124Z,82.40
2019-04-25T22:47:17.613Z,82.70
2019-04-25T22:49:48.180Z,82.60
2019-04-25T22:52:19.130Z,81.30
2019-04-25T22:54:49.991Z,82.60
2019-04-25T22:57:21.067Z,82.40
2019-04-25T22:59:51.663Z,81.30
2019-04-25T23:02:39.172Z,82.70
2019-04-25T23:05:16.108Z,81.80
2019-04-25T23:07:45.156Z,82.00
2019-04-25T23:10:16.334Z,81.60
2019-04-25T23:12:46.987Z,81.80
2019-04-25T23:15:18.026Z,81.50
2019-04-25T23:17:49.054Z,81.80
2019-04-25T23:20:20.167Z,81.80
2019-04-25T23:22:51.032Z,81.50
2019-04-25T23:25:23.552Z,81.00
2019-04-25T23:28:01.570Z,81.70
2019-04-25T23:30:36.919Z,81.90
2019-04-25T23:33:08.442Z,82.10
2019-04-25T23:35:39.333Z,81.00
2019-04-25T23:38:12.521Z,81.70
2019-04-25T23:40:42.730Z,81.40
2019-04-25T23:43:13.866Z,80.50
2019-04-25T23:45:44.459Z,80.30
2019-04-25T23:48:16.376Z,80.40
2019-04-25T23:50:47.216Z,80.10
2019-04-25T23:53:18.015Z,80.00
2019-04-25T23:55:48.681Z,79.80
2019-04-25T23:58:19.291Z,79.90
